Time,TemperatureF,DewpointF,PressureIn,WindDirection,WindDirectionDegrees,WindSpeedMPH,WindSpeedGustMPH,Humidity,HourlyPrecipIn,Conditions,Clouds,dailyrainin,SoftwareType,DateUTC
2013-02-19 01:53:00,36.0,22.0,-100.00,WSW,258,9.0,26.0,56,-99.99,,,-99.99,,2013-02-19 09:53:00,
2013-02-19 02:01:00,36.0,23.0,-100.00,West,267,6.0,15.0,59,-99.99,,,-99.99,,2013-02-19 10:01:00,
2013-02-19 02:11:00,36.0,23.0,-100.00,WSW,246,7.0,19.0,59,-99.99,,,-99.99,,2013-02-19 10:11:00,
2013-02-19 02:21:00,37.0,22.0,-100.00,WSW,243,7.0,26.0,54,-99.99,,,-99.99,,2013-02-19 10:21:00,
2013-02-19 02:31:00,37.0,22.0,-100.00,WSW,244,5.0,19.0,55,-99.99,,,-99.99,,2013-02-19 10:31:00,
2013-02-19 02:41:00,37.0,22.0,-100.00,North,-999,0.0,0.0,54,-99.99,,,-99.99,,2013-02-19 10:41:00,
2013-02-19 02:51:00,37.0,21.0,-100.00,North,-999,0.0,0.0,52,-99.99,,,-99.99,,2013-02-19 10:51:00,
2013-02-19 03:01:00,37.0,22.0,-100.00,North,-999,0.0,0.0,54,-99.99,,,-99.99,,2013-02-19 11:01:00,
2013-02-19 03:11:00,36.0,23.0,-100.00,North,-999,0.0,0.0,59,-99.99,,,-99.99,,2013-02-19 11:11:00,
2013-02-19 03:21:00,36.0,23.0,-100.00,North,-999,0.0,0.0,58,-99.99,,,-99.99,,2013-02-19 11:21:00,
2013-02-19 03:31:00,35.0,27.0,-100.00,North,-999,0.0,0.0,72,-99.99,,,-99.99,,2013-02-19 11:31:00,
2013-02-19 03:42:00,34.0,27.0,-100.00,North,-999,0.0,0.0,76,-99.99,,,-99.99,,2013-02-19 11:42:00,
2013-02-19 03:52:00,33.0,29.0,-100.00,North,-999,0.0,0.0,85,-99.99,,,-99.99,,2013-02-19 11:52:00,
2013-02-19 04:01:00,33.0,29.0,-100.00,North,-999,0.0,0.0,86,-99.99,,,-99.99,,2013-02-19 12:01:00,
2013-02-19 04:12:00,32.0,30.0,-100.00,North,-999,0.0,0.0,92,-99.99,,,-99.99,,2013-02-19 12:12:00,
2013-02-19 04:21:00,32.0,30.0,-100.00,North,-999,0.0,0.0,92,-99.99,,,-99.99,,2013-02-19 12:21:00,
2013-02-19 04:32:00,32.0,30.0,-100.00,North,-999,0.0,0.0,93,-99.99,,,-99.99,,2013-02-19 12:32:00,
2013-02-19 04:42:00,32.0,30.0,-100.00,North,-999,0.0,0.0,93,-99.99,,,-99.99,,2013-02-19 12:42:00,
2013-02-19 04:52:00,32.0,30.0,-100.00,North,-999,0.0,0.0,93,-99.99,,,-99.99,,2013-02-19 12:52:00,
2013-02-19 05:01:00,32.0,30.0,-100.00,North,-999,0.0,0.0,93,-99.99,,,-99.99,,2013-02-19 13:01:00,
2013-02-19 05:52:00,33.0,28.0,-100.00,North,-999,0.0,0.0,83,-99.99,,,-99.99,,2013-02-19 13:52:00,
2013-02-19 06:01:00,33.0,28.0,-100.00,North,-999,0.0,0.0,80,-99.99,,,-99.99,,2013-02-19 14:01:00,
2013-02-19 06:11:00,33.0,26.0,-100.00,North,-999,0.0,0.0,74,-99.99,,,-99.99,,2013-02-19 14:11:00,
2013-02-19 06:21:00,34.0,22.0,-100.00,North,-999,0.0,0.0,61,-99.99,,,-99.99,,2013-02-19 14:21:00,
2013-02-19 06:32:00,34.0,22.0,-100.00,North,-999,0.0,0.0,60,-99.99,,,-99.99,,2013-02-19 14:32:00,
2013-02-19 06:42:00,34.0,22.0,-100.00,North,-999,0.0,0.0,60,-99.99,,,-99.99,,2013-02-19 14:42:00,
2013-02-19 06:52:00,32.0,22.0,-100.00,North,-999,0.0,0.0,65,-99.99,,,-99.99,,2013-02-19 14:52:00,
2013-02-19 07:01:00,33.0,19.0,-100.00,North,-999,0.0,0.0,57,-99.99,,,-99.99,,2013-02-19 15:01:00,
2013-02-19 07:11:00,33.0,19.0,-100.00,North,-999,0.0,0.0,56,-99.99,,,-99.99,,2013-02-19 15:11:00,
2013-02-19 07:21:00,33.0,19.0,-100.00,North,-999,0.0,0.0,56,-99.99,,,-99.99,,2013-02-19 15:21:00,
2013-02-19 07:30:00,33.0,18.0,-100.00,North,-999,0.0,0.0,54,-99.99,,,-99.99,,2013-02-19 15:30:00,
2013-02-19 07:31:00,33.0,19.0,-100.00,North,-999,0.0,0.0,56,-99.99,,,-99.99,,2013-02-19 15:31:00,
2013-02-19 07:42:00,33.0,19.0,-100.00,North,-999,0.0,0.0,56,-99.99,,,-99.99,,2013-02-19 15:42:00,
2013-02-19 07:52:00,32.0,20.0,-100.00,North,-999,0.0,0.0,63,-99.99,,,-99.99,,2013-02-19 15:52:00,
2013-02-19 08:01:00,32.0,18.0,-100.00,North,-999,0.0,0.0,55,-99.99,,,-99.99,,2013-02-19 16:01:00,
2013-02-19 08:11:00,33.0,18.0,-100.00,North,-999,0.0,0.0,54,-99.99,,,-99.99,,2013-02-19 16:11:00,
2013-02-19 08:21:00,33.0,18.0,-100.00,North,-999,0.0,0.0,54,-99.99,,,-99.99,,2013-02-19 16:21:00,
2013-02-19 09:21:00,34.0,14.0,-100.00,North,-999,0.0,0.0,42,-99.99,,,-99.99,,2013-02-19 17:21:00,
2013-02-19 09:42:00,33.0,15.0,-100.00,North,-999,0.0,0.0,47,-99.99,,,-99.99,,2013-02-19 17:42:00,
2013-02-19 09:52:00,33.0,15.0,-100.00,North,-999,0.0,0.0,47,-99.99,,,-99.99,,2013-02-19 17:52:00,
2013-02-19 10:01:00,34.0,14.0,-100.00,North,-999,0.0,0.0,42,-99.99,,,-99.99,,2013-02-19 18:01:00,
2013-02-19 10:11:00,34.0,14.0,-100.00,North,-999,0.0,0.0,42,-99.99,,,-99.99,,2013-02-19 18:11:00,
2013-02-19 11:11:00,36.0,14.0,-100.00,North,-999,0.0,0.0,41,-99.99,,,-99.99,,2013-02-19 19:11:00,
2013-02-19 11:21:00,36.0,14.0,-100.00,North,-999,0.0,0.0,41,-99.99,,,-99.99,,2013-02-19 19:21:00,
2013-02-19 11:31:00,36.0,13.0,-100.00,North,-999,0.0,0.0,38,-99.99,,,-99.99,,2013-02-19 19:31:00,
2013-02-19 11:41:00,36.0,16.0,-100.00,North,-999,0.0,0.0,43,-99.99,,,-99.99,,2013-02-19 19:41:00,
2013-02-19 11:51:00,36.0,10.0,-100.00,North,-999,0.0,0.0,34,-99.99,,,-99.99,,2013-02-19 19:51:00,
2013-02-19 12:01:00,36.0,12.0,-100.00,North,-999,0.0,0.0,36,-99.99,,,-99.99,,2013-02-19 20:01:00,
2013-02-19 12:11:00,36.0,12.0,-100.00,North,-999,0.0,0.0,36,-99.99,,,-99.99,,2013-02-19 20:11:00,
2013-02-19 14:11:00,35.0,12.0,-100.00,North,-999,0.0,0.0,37,-99.99,,,-99.99,,2013-02-19 22:11:00,
2013-02-19 14:42:00,36.0,10.0,-100.00,North,-999,0.0,0.0,33,-99.99,,,-99.99,,2013-02-19 22:42:00,
2013-02-19 14:52:00,35.0,12.0,-100.00,North,-999,0.0,0.0,37,-99.99,,,-99.99,,2013-02-19 22:52:00,
2013-02-19 15:00:00,35.0,12.0,-100.00,North,-999,0.0,0.0,38,-99.99,,,-99.99,,2013-02-19 23:00:00,
2013-02-19 15:01:00,35.0,12.0,-100.00,North,-999,0.0,0.0,37,-99.99,,,-99.99,,2013-02-19 23:01:00,
2013-02-19 15:21:00,34.0,13.0,-100.00,North,-999,0.0,0.0,41,-99.99,,,-99.99,,2013-02-19 23:21:00,
2013-02-19 15:32:00,34.0,12.0,-100.00,North,-999,0.0,0.0,39,-99.99,,,-99.99,,2013-02-19 23:32:00,
2013-02-19 15:41:00,35.0,12.0,-100.00,North,-999,0.0,0.0,38,-99.99,,,-99.99,,2013-02-19 23:41:00,
2013-02-19 15:52:00,35.0,12.0,-100.00,North,-999,0.0,0.0,38,-99.99,,,-99.99,,2013-02-19 23:52:00,
2013-02-19 16:31:00,32.0,15.0,-100.00,North,-999,0.0,0.0,49,-99.99,,,-99.99,,2013-02-20 00:31:00,
2013-02-19 16:52:00,34.0,12.0,-100.00,North,-999,0.0,0.0,39,-99.99,,,-99.99,,2013-02-20 00:52:00,
2013-02-19 17:02:00,33.0,14.0,-100.00,North,-999,0.0,0.0,46,-99.99,,,-99.99,,2013-02-20 01:02:00,
2013-02-19 17:11:00,32.0,15.0,-100.00,North,-999,0.0,0.0,49,-99.99,,,-99.99,,2013-02-20 01:11:00,
2013-02-19 17:21:00,32.0,15.0,-100.00,North,-999,0.0,0.0,49,-99.99,,,-99.99,,2013-02-20 01:21:00,